createdAt,value
2018-11-02T00:02:13.101Z,97.40
2018-11-02T00:04:41.204Z,98.01
2018-11-02T00:07:09.299Z,97.74
2018-11-02T00:09:37.378Z,97.88
2018-11-02T00:12:05.827Z,97.95
2018-11-02T00:14:33.865Z,98.28
2018-11-02T00:17:02.010Z,98.51
2018-11-02T00:19:32.035Z,97.64
2018-11-02T00:22:01.636Z,97.21
2018-11-02T00:24:30.027Z,97.93
2018-11-02T00:26:58.839Z,97.48
2018-11-02T00:29:26.979Z,97.56
2018-11-02T00:31:55.151Z,98.15
2018-11-02T00:34:23.164Z,98.67
2018-11-02T00:36:51.315Z,98.83
2018-11-02T00:39:19.407Z,98.66
2018-11-02T00:41:47.508Z,98.88
2018-11-02T00:44:15.737Z,98.47
2018-11-02T00:46:43.772Z,98.30
2018-11-02T00:49:11.888Z,98.26
2018-11-02T00:51:40.008Z,98.35
2018-11-02T00:54:08.129Z,97.81
2018-11-02T00:56:36.251Z,97.95
2018-11-02T00:59:04.444Z,97.60
2018-11-02T01:01:32.620Z,98.15
2018-11-02T01:04:00.871Z,97.87
2018-11-02T01:06:29.809Z,98.08
2018-11-02T01:08:58.085Z,97.18
2018-11-02T01:11:26.187Z,96.52
2018-11-02T01:13:54.295Z,96.85
2018-11-02T01:16:22.431Z,96.67
2018-11-02T01:18:50.597Z,96.95
2018-11-02T01:21:18.724Z,97.77
2018-11-02T01:23:46.903Z,98.35
2018-11-02T01:26:15.020Z,98.66
2018-11-02T01:28:43.224Z,98.55
2018-11-02T01:31:11.356Z,98.56
2018-11-02T01:33:39.811Z,98.45
2018-11-02T01:36:09.507Z,98.96
2018-11-02T01:38:37.924Z,99.66
2018-11-02T01:41:06.506Z,99.22
2018-11-02T01:43:34.626Z,98.81
2018-11-02T01:46:02.857Z,98.13
2018-11-02T01:48:31.059Z,97.37
2018-11-02T01:50:59.159Z,97.38
2018-11-02T01:53:27.565Z,97.27
2018-11-02T01:55:55.660Z,96.95
2018-11-02T01:58:23.840Z,97.25
2018-11-02T02:00:52.016Z,96.66
2018-11-02T02:03:20.161Z,96.48
2018-11-02T02:05:48.270Z,96.43
2018-11-02T02:08:16.403Z,96.47
2018-11-02T02:10:44.516Z,96.10
2018-11-02T02:13:12.660Z,95.57
2018-11-02T02:15:40.812Z,95.51
2018-11-02T02:18:08.952Z,95.81
2018-11-02T02:20:37.212Z,96.22
2018-11-02T02:23:05.327Z,96.30
2018-11-02T02:25:33.415Z,96.19
2018-11-02T02:28:01.570Z,95.86
2018-11-02T02:30:29.636Z,95.38
2018-11-02T02:32:57.715Z,96.04
2018-11-02T02:35:25.833Z,95.56
2018-11-02T02:37:53.927Z,95.04
2018-11-02T02:40:22.012Z,95.18
2018-11-02T02:42:50.112Z,95.48
2018-11-02T02:45:18.228Z,94.75
2018-11-02T02:47:46.320Z,94.35
2018-11-02T02:50:14.931Z,94.43
2018-11-02T02:52:43.950Z,93.51
2018-11-02T02:55:12.044Z,93.13
2018-11-02T02:57:40.204Z,93.42
2018-11-02T03:00:10.324Z,92.91
2018-11-02T03:02:38.559Z,92.74
2018-11-02T03:05:06.689Z,92.91
2018-11-02T03:07:34.852Z,92.00
2018-11-02T03:10:02.975Z,92.18
2018-11-02T03:12:31.123Z,92.07
2018-11-02T03:14:59.232Z,91.97
2018-11-02T03:17:27.339Z,92.80
2018-11-02T03:19:55.465Z,93.18
2018-11-02T03:22:23.644Z,93.08
2018-11-02T03:24:51.693Z,93.29
2018-11-02T03:27:19.907Z,94.22
2018-11-02T03:29:48.079Z,94.15
2018-11-02T03:32:16.220Z,94.18
2018-11-02T03:34:44.344Z,95.34
2018-11-02T03:37:12.475Z,95.77
2018-11-02T03:39:40.579Z,97.02
2018-11-02T03:42:08.672Z,97.91
2018-11-02T03:44:36.986Z,97.95
2018-11-02T03:47:05.104Z,98.36
2018-11-02T03:49:33.592Z,98.74
2018-11-02T03:52:01.675Z,98.94
2018-11-02T03:54:29.772Z,99.15
2018-11-02T03:56:57.978Z,98.79
2018-11-02T03:59:26.133Z,99.66
2018-11-02T04:01:54.215Z,98.76
2018-11-02T04:04:22.339Z,98.79
2018-11-02T04:06:50.446Z,98.13
2018-11-02T04:09:18.597Z,97.78
2018-11-02T04:11:46.727Z,97.47
2018-11-02T04:14:14.823Z,97.71
2018-11-02T04:16:42.943Z,97.05
2018-11-02T04:19:11.061Z,96.78
2018-11-02T04:21:45.684Z,96.48
2018-11-02T04:24:13.822Z,96.91
2018-11-02T04:26:41.945Z,97.75
2018-11-02T04:29:11.162Z,97.67
2018-11-02T04:31:39.241Z,98.91
2018-11-02T04:34:07.403Z,99.10
2018-11-02T04:36:35.500Z,100.00
2018-11-02T04:39:03.629Z,100.00
2018-11-02T04:41:32.059Z,100.00
2018-11-02T04:44:00.315Z,100.00
2018-11-02T04:46:28.588Z,100.00
2018-11-02T04:48:56.729Z,100.00
2018-11-02T04:51:24.827Z,100.00
2018-11-02T04:53:55.741Z,100.00
2018-11-02T04:56:24.725Z,100.00
2018-11-02T04:58:52.887Z,100.00
2018-11-02T05:01:21.659Z,100.00
2018-11-02T05:03:49.930Z,100.00
2018-11-02T05:06:18.080Z,100.00
2018-11-02T05:08:46.271Z,100.00
2018-11-02T05:11:14.895Z,100.00
2018-11-02T05:13:43.171Z,100.00
2018-11-02T05:16:11.299Z,100.00
2018-11-02T05:18:39.403Z,100.00
2018-11-02T05:21:08.428Z,100.00
2018-11-02T05:23:36.981Z,100.00
2018-11-02T05:26:05.478Z,100.00
2018-11-02T05:28:33.961Z,100.00
2018-11-02T05:31:02.187Z,100.00
2018-11-02T05:33:30.307Z,100.00
2018-11-02T05:35:58.658Z,100.00
2018-11-02T05:38:26.760Z,100.00
2018-11-02T05:40:54.856Z,100.00
2018-11-02T05:43:22.986Z,100.00
2018-11-02T05:45:51.212Z,100.00
2018-11-02T05:48:19.344Z,100.00
2018-11-02T05:50:47.432Z,100.00
2018-11-02T05:53:15.746Z,100.00
2018-11-02T05:55:43.836Z,100.00
2018-11-02T05:58:11.979Z,99.97
2018-11-02T06:00:40.211Z,100.00
2018-11-02T06:03:08.316Z,99.65
2018-11-02T06:05:36.448Z,99.65
2018-11-02T06:08:04.887Z,99.62
2018-11-02T06:10:33.542Z,99.92
2018-11-02T06:13:01.776Z,100.00
2018-11-02T06:15:29.927Z,99.37
2018-11-02T06:17:58.031Z,98.91
2018-11-02T06:20:26.326Z,98.81
2018-11-02T06:22:54.399Z,98.53
2018-11-02T06:25:22.489Z,97.72
2018-11-02T06:27:50.568Z,98.15
2018-11-02T06:30:18.676Z,97.13
2018-11-02T06:32:46.819Z,95.83
2018-11-02T06:35:14.894Z,96.05
2018-11-02T06:37:42.985Z,95.96
2018-11-02T06:40:11.110Z,95.50
2018-11-02T06:42:39.193Z,94.60
2018-11-02T06:45:08.442Z,95.35
2018-11-02T06:47:36.495Z,95.53
2018-11-02T06:50:04.776Z,96.28
2018-11-02T06:52:32.878Z,96.45
2018-11-02T06:55:00.997Z,95.33
2018-11-02T06:57:29.096Z,95.66
2018-11-02T06:59:57.436Z,95.02
2018-11-02T07:02:25.943Z,95.40
2018-11-02T07:04:54.119Z,95.32
2018-11-02T07:07:22.276Z,96.04
2018-11-02T07:09:50.415Z,96.21
2018-11-02T07:12:18.574Z,96.20
2018-11-02T07:14:46.740Z,96.32
2018-11-02T07:17:14.897Z,95.87
2018-11-02T07:19:43.005Z,95.96
2018-11-02T07:22:11.082Z,95.72
2018-11-02T07:24:39.218Z,96.00
2018-11-02T07:27:07.343Z,95.74
2018-11-02T07:29:35.451Z,95.02
2018-11-02T07:32:03.587Z,95.24
2018-11-02T07:34:32.234Z,95.43
2018-11-02T07:37:00.205Z,95.65
2018-11-02T07:39:30.318Z,96.22
2018-11-02T07:41:58.443Z,95.82
2018-11-02T07:44:26.656Z,96.74
2018-11-02T07:46:54.832Z,97.77
2018-11-02T07:49:22.977Z,97.46
2018-11-02T07:51:51.094Z,97.67
2018-11-02T07:54:19.215Z,97.44
2018-11-02T07:56:47.312Z,98.14
2018-11-02T07:59:15.673Z,98.06
2018-11-02T08:01:43.839Z,97.97
2018-11-02T08:04:11.846Z,98.39
2018-11-02T08:06:40.599Z,98.28
2018-11-02T08:09:10.071Z,98.22
2018-11-02T08:11:38.289Z,98.13
2018-11-02T08:14:06.522Z,99.02
2018-11-02T08:16:34.697Z,99.28
2018-11-02T08:19:02.855Z,99.80
2018-11-02T08:21:30.960Z,99.84
2018-11-02T08:23:59.078Z,99.33
2018-11-02T08:26:27.256Z,99.44
2018-11-02T08:28:55.459Z,99.57
2018-11-02T08:31:23.581Z,99.39
2018-11-02T08:33:51.687Z,99.48
2018-11-02T08:36:19.776Z,99.36
2018-11-02T08:38:47.915Z,99.07
2018-11-02T08:41:16.339Z,98.93
2018-11-02T08:43:44.464Z,98.65
2018-11-02T08:46:12.547Z,98.15
2018-11-02T08:48:41.604Z,98.11
2018-11-02T08:51:09.681Z,97.97
2018-11-02T08:53:37.782Z,96.86
2018-11-02T08:56:06.331Z,97.07
2018-11-02T08:58:34.606Z,96.32
2018-11-02T09:01:02.695Z,96.09
2018-11-02T09:03:30.895Z,95.79
2018-11-02T09:05:59.050Z,95.68
2018-11-02T09:08:27.177Z,95.63
2018-11-02T09:10:55.355Z,95.40
2018-11-02T09:13:23.560Z,94.37
2018-11-02T09:15:51.680Z,94.40
2018-11-02T09:18:19.973Z,94.52
2018-11-02T09:20:48.007Z,94.05
2018-11-02T09:23:16.458Z,93.75
2018-11-02T09:25:44.589Z,93.58
2018-11-02T09:28:12.757Z,92.76
2018-11-02T09:30:40.828Z,92.82
2018-11-02T09:33:08.949Z,92.78
2018-11-02T09:35:37.075Z,91.73
2018-11-02T09:38:05.423Z,91.55
2018-11-02T09:40:33.660Z,91.34
2018-11-02T09:43:01.702Z,90.46
2018-11-02T09:45:29.835Z,89.75
2018-11-02T09:47:57.924Z,89.35
2018-11-02T09:50:26.042Z,89.65
2018-11-02T09:52:54.163Z,90.26
2018-11-02T09:55:22.302Z,89.10
2018-11-02T09:57:50.463Z,88.50
2018-11-02T10:00:18.759Z,87.97
2018-11-02T10:02:47.007Z,87.02
2018-11-02T10:05:15.132Z,86.51
2018-11-02T10:07:43.234Z,86.32
2018-11-02T10:10:12.150Z,86.62
2018-11-02T10:12:40.271Z,85.82
2018-11-02T10:15:11.651Z,86.73
2018-11-02T10:17:39.829Z,86.69
2018-11-02T10:20:08.299Z,86.28
2018-11-02T10:22:36.659Z,86.21
2018-11-02T10:25:04.868Z,85.19
2018-11-02T10:27:33.129Z,85.67
2018-11-02T10:30:01.308Z,85.68
2018-11-02T10:32:29.443Z,85.66
2018-11-02T10:34:57.571Z,85.78
2018-11-02T10:37:25.686Z,85.29
2018-11-02T10:39:53.904Z,84.67
2018-11-02T10:42:21.994Z,83.67
2018-11-02T10:44:50.120Z,83.83
2018-11-02T10:47:18.250Z,83.74
2018-11-02T10:49:46.363Z,83.33
2018-11-02T10:52:14.472Z,83.23
2018-11-02T10:54:42.678Z,83.08
2018-11-02T10:57:10.680Z,82.85
2018-11-02T10:59:38.779Z,81.99
2018-11-02T11:02:07.501Z,81.77
2018-11-02T11:04:36.085Z,81.92
2018-11-02T11:07:04.351Z,80.54
2018-11-02T11:09:32.501Z,80.66
2018-11-02T11:12:00.639Z,79.72
2018-11-02T11:14:29.024Z,80.12
2018-11-02T11:16:57.197Z,79.47
2018-11-02T11:19:26.780Z,77.71
2018-11-02T11:21:54.998Z,77.67
2018-11-02T11:24:23.168Z,77.88
2018-11-02T11:26:51.679Z,77.01
2018-11-02T11:29:19.865Z,75.62
2018-11-02T11:31:47.928Z,76.44
2018-11-02T11:34:16.039Z,76.89
2018-11-02T11:36:44.148Z,76.41
2018-11-02T11:39:21.084Z,76.01
2018-11-02T11:41:49.180Z,76.25
2018-11-02T11:44:17.323Z,75.59
2018-11-02T11:46:45.427Z,74.52
2018-11-02T11:49:13.591Z,74.88
2018-11-02T11:51:41.632Z,73.34
2018-11-02T11:54:09.760Z,72.04
2018-11-02T11:56:37.879Z,72.47
2018-11-02T11:59:06.046Z,74.00
2018-11-02T12:01:34.154Z,74.98
2018-11-02T12:04:02.250Z,75.12
2018-11-02T12:06:30.373Z,75.11
2018-11-02T12:08:58.464Z,75.63
2018-11-02T12:11:26.585Z,74.74
2018-11-02T12:13:54.677Z,73.39
2018-11-02T12:16:22.809Z,72.52
2018-11-02T12:18:50.926Z,72.49
2018-11-02T12:21:19.011Z,72.95
2018-11-02T12:23:47.108Z,72.68
2018-11-02T12:26:15.207Z,72.22
2018-11-02T12:28:43.373Z,71.35
2018-11-02T12:31:11.443Z,70.87
2018-11-02T12:33:39.679Z,69.50
2018-11-02T12:36:07.829Z,70.72
2018-11-02T12:38:36.889Z,70.83
2018-11-02T12:41:08.100Z,71.30
2018-11-02T12:43:36.450Z,70.62
2018-11-02T12:46:05.953Z,70.56
2018-11-02T12:48:35.097Z,71.07
2018-11-02T12:51:03.885Z,69.07
2018-11-02T12:53:35.261Z,67.65
2018-11-02T12:56:06.308Z,68.40
2018-11-02T12:58:35.815Z,67.95
2018-11-02T13:01:09.125Z,68.24
2018-11-02T13:03:40.423Z,69.12
2018-11-02T13:06:10.536Z,70.05
2018-11-02T13:08:40.320Z,68.98
2018-11-02T13:11:10.120Z,69.30
2018-11-02T13:13:38.692Z,69.50
2018-11-02T13:16:08.639Z,70.06
2018-11-02T13:18:37.594Z,69.05
2018-11-02T13:21:32.184Z,69.00
2018-11-02T13:24:01.468Z,69.24
2018-11-02T13:26:34.787Z,69.38
2018-11-02T13:29:04.120Z,70.01
2018-11-02T13:31:34.256Z,69.20
2018-11-02T13:34:08.932Z,69.31
2018-11-02T13:36:37.214Z,67.45
2018-11-02T13:39:08.411Z,67.03
2018-11-02T13:41:36.536Z,67.59
2018-11-02T13:45:14.519Z,68.38
2018-11-02T13:47:43.199Z,68.57
2018-11-02T13:50:11.779Z,69.35
2018-11-02T13:52:40.140Z,69.62
2018-11-02T13:55:08.924Z,70.13
2018-11-02T13:57:37.044Z,69.40
2018-11-02T14:00:06.897Z,67.71
2018-11-02T14:02:34.916Z,68.14
2018-11-02T14:05:03.124Z,66.00
2018-11-02T14:07:31.295Z,67.61
2018-11-02T14:09:59.398Z,67.86
2018-11-02T14:12:27.497Z,68.56
2018-11-02T14:14:55.587Z,67.29
2018-11-02T14:17:23.695Z,68.18
2018-11-02T14:19:51.851Z,68.36
2018-11-02T14:22:19.940Z,67.33
2018-11-02T14:24:48.032Z,68.80
2018-11-02T14:27:16.128Z,68.80
2018-11-02T14:29:44.211Z,69.65
2018-11-02T14:32:12.321Z,69.83
2018-11-02T14:34:40.464Z,69.53
2018-11-02T14:37:08.543Z,68.61
2018-11-02T14:39:38.504Z,69.04
2018-11-02T14:42:10.743Z,69.79
2018-11-02T14:44:41.591Z,69.71
2018-11-02T14:47:11.716Z,69.54
2018-11-02T14:49:41.094Z,69.96
2018-11-02T14:52:14.531Z,70.04
2018-11-02T14:54:45.365Z,70.43
2018-11-02T14:57:14.711Z,70.10
2018-11-02T14:59:45.418Z,70.75
2018-11-02T15:02:13.640Z,70.35
2018-11-02T15:04:43.023Z,70.37
2018-11-02T15:07:13.135Z,69.78
2018-11-02T15:09:48.765Z,70.57
2018-11-02T15:12:20.304Z,70.18
2018-11-02T15:17:38.260Z,69.87
2018-11-02T15:20:14.390Z,70.80
2018-11-02T15:22:45.530Z,70.96
2018-11-02T15:25:18.568Z,70.87
2018-11-02T15:27:48.099Z,70.24
2018-11-02T15:30:18.386Z,70.69
2018-11-02T15:32:47.789Z,70.74
2018-11-02T15:35:18.655Z,70.85
2018-11-02T15:37:51.712Z,70.75
2018-11-02T15:40:22.240Z,70.65
2018-11-02T15:42:54.780Z,70.91
2018-11-02T15:45:27.918Z,71.59
2018-11-02T15:48:01.672Z,71.13
2018-11-02T15:50:36.428Z,71.32
2018-11-02T15:53:04.589Z,71.61
2018-11-02T15:55:32.667Z,71.72
2018-11-02T15:58:00.871Z,70.92
2018-11-02T16:00:29.080Z,71.05
2018-11-02T16:03:03.746Z,71.29
2018-11-02T16:05:31.914Z,71.54
2018-11-02T16:08:00.023Z,71.57
2018-11-02T16:10:28.204Z,70.91
2018-11-02T16:12:56.340Z,71.31
2018-11-02T16:15:24.655Z,70.72
2018-11-02T16:17:52.843Z,70.61
2018-11-02T16:20:20.976Z,71.64
2018-11-02T16:22:49.127Z,70.89
2018-11-02T16:25:17.275Z,70.92
2018-11-02T16:27:46.338Z,72.04
2018-11-02T16:30:14.568Z,71.58
2018-11-02T16:32:42.511Z,71.06
2018-11-02T16:35:11.380Z,71.09
2018-11-02T16:37:39.567Z,71.30
2018-11-02T16:40:10.536Z,73.11
2018-11-02T16:42:38.650Z,75.29
2018-11-02T16:45:08.439Z,74.79
2018-11-02T16:47:36.911Z,75.22
2018-11-02T16:50:05.215Z,75.07
2018-11-02T16:52:33.359Z,74.65
2018-11-02T16:55:01.469Z,74.17
2018-11-02T16:57:29.665Z,75.16
2018-11-02T16:59:57.799Z,74.99
2018-11-02T17:02:26.258Z,74.35
2018-11-02T17:04:54.479Z,74.20
2018-11-02T17:07:22.562Z,74.62
2018-11-02T17:09:50.769Z,74.76
2018-11-02T17:12:18.840Z,74.43
2018-11-02T17:14:46.968Z,74.25
2018-11-02T17:17:15.067Z,74.73
2018-11-02T17:19:43.154Z,74.66
2018-11-02T17:22:11.480Z,74.66
2018-11-02T17:24:39.583Z,74.28
2018-11-02T17:27:07.678Z,73.71
2018-11-02T17:29:35.770Z,73.77
2018-11-02T17:32:03.931Z,74.23
2018-11-02T17:34:32.072Z,74.09
2018-11-02T17:37:00.181Z,74.00
2018-11-02T17:39:28.301Z,74.22
2018-11-02T17:41:56.460Z,73.98
2018-11-02T17:44:24.601Z,72.19
2018-11-02T17:46:52.721Z,73.11
2018-11-02T17:49:20.859Z,73.06
2018-11-02T17:51:49.071Z,71.83
2018-11-02T17:54:17.174Z,72.91
2018-11-02T17:56:45.267Z,73.32
2018-11-02T17:59:13.376Z,72.65
2018-11-02T18:01:42.597Z,72.92
2018-11-02T18:04:10.727Z,72.64
2018-11-02T18:06:38.892Z,72.64
2018-11-02T18:09:09.048Z,73.85
2018-11-02T18:11:37.405Z,74.20
2018-11-02T18:14:05.564Z,74.39
2018-11-02T18:16:33.723Z,73.94
2018-11-02T18:19:01.967Z,74.22
2018-11-02T18:21:30.093Z,74.69
2018-11-02T18:23:59.683Z,74.74
2018-11-02T18:26:28.717Z,74.53
2018-11-02T18:28:57.599Z,74.46
2018-11-02T18:31:25.873Z,75.33
2018-11-02T18:33:56.346Z,75.91
2018-11-02T18:36:27.644Z,75.65
2018-11-02T18:38:56.932Z,76.23
2018-11-02T18:41:26.059Z,76.54
2018-11-02T18:43:54.510Z,76.30
2018-11-02T18:46:22.912Z,77.34
2018-11-02T18:48:51.755Z,76.46
2018-11-02T18:51:21.796Z,76.82
2018-11-02T18:53:50.405Z,77.29
2018-11-02T18:56:18.679Z,77.67
2018-11-02T18:58:48.805Z,76.64
2018-11-02T19:01:18.259Z,77.98
2018-11-02T19:03:47.109Z,77.97
2018-11-02T19:06:16.827Z,78.02
2018-11-02T19:08:49.295Z,79.02
2018-11-02T19:11:18.533Z,79.09
2018-11-02T19:13:47.166Z,79.43
2018-11-02T19:16:15.600Z,79.69
2018-11-02T19:18:47.729Z,80.13
2018-11-02T19:21:17.961Z,80.15
2018-11-02T19:23:46.668Z,80.55
2018-11-02T19:26:15.047Z,79.52
2018-11-02T19:28:43.772Z,80.15
2018-11-02T19:31:12.888Z,81.41
2018-11-02T19:33:42.100Z,82.17
2018-11-02T19:36:10.550Z,83.46
2018-11-02T19:38:39.990Z,84.15
2018-11-02T19:41:10.326Z,83.50
2018-11-02T19:43:38.767Z,83.92
2018-11-02T19:46:07.985Z,83.85
2018-11-02T19:48:39.254Z,84.48
2018-11-02T19:51:07.940Z,83.53
2018-11-02T19:53:38.030Z,83.94
2018-11-02T19:56:06.720Z,83.72
2018-11-02T19:58:35.451Z,85.52
2018-11-02T20:01:05.792Z,85.45
2018-11-02T20:03:34.070Z,85.81
2018-11-02T20:06:09.334Z,85.32
2018-11-02T20:08:37.609Z,86.29
2018-11-02T20:11:06.607Z,85.93
2018-11-02T20:13:36.236Z,85.87
2018-11-02T20:16:04.941Z,85.45
2018-11-02T20:18:33.505Z,86.11
2018-11-02T20:21:02.360Z,85.14
2018-11-02T20:23:30.760Z,84.95
2018-11-02T20:25:59.008Z,84.85
2018-11-02T20:28:28.159Z,85.05
2018-11-02T20:30:56.694Z,85.46
2018-11-02T20:33:24.990Z,84.96
2018-11-02T20:35:53.596Z,84.77
2018-11-02T20:38:22.474Z,85.24
2018-11-02T20:40:51.086Z,84.72
2018-11-02T20:43:21.000Z,85.29
2018-11-02T20:45:52.446Z,84.76
2018-11-02T20:48:21.069Z,84.12
2018-11-02T20:50:50.143Z,83.26
2018-11-02T20:53:18.776Z,83.45
2018-11-02T20:55:47.429Z,83.63
2018-11-02T20:58:15.731Z,84.55
2018-11-02T21:00:45.132Z,85.53
2018-11-02T21:03:14.362Z,86.16
2018-11-02T21:05:44.057Z,86.10
2018-11-02T21:08:13.329Z,85.36
2018-11-02T21:10:42.088Z,84.50
2018-11-02T21:13:10.689Z,85.49
2018-11-02T21:15:39.618Z,85.98
2018-11-02T21:18:08.285Z,86.11
2018-11-02T21:20:39.826Z,85.43
2018-11-02T21:23:09.346Z,85.34
2018-11-02T21:25:43.322Z,86.48
2018-11-02T21:28:13.090Z,87.09
2018-11-02T21:30:43.360Z,86.83
2018-11-02T21:33:11.622Z,86.17
2018-11-02T21:35:40.328Z,85.39
2018-11-02T21:41:21.114Z,84.02
2018-11-02T21:43:53.424Z,84.42
2018-11-02T21:46:22.936Z,84.55
2018-11-02T21:48:51.480Z,84.76
2018-11-02T21:51:20.705Z,85.17
2018-11-02T21:53:50.022Z,84.74
2018-11-02T21:56:19.587Z,85.45
2018-11-02T21:58:48.223Z,86.19
2018-11-02T22:01:17.157Z,86.50
2018-11-02T22:03:46.160Z,87.37
2018-11-02T22:06:14.868Z,87.34
2018-11-02T22:08:44.276Z,87.63
2018-11-02T22:11:12.879Z,86.50
2018-11-02T22:13:42.025Z,86.33
2018-11-02T22:16:13.580Z,86.08
2018-11-02T22:18:42.065Z,85.69
2018-11-02T22:21:10.641Z,85.77
2018-11-02T22:23:39.003Z,85.43
2018-11-02T22:26:07.784Z,85.96
2018-11-02T22:28:36.290Z,86.55
2018-11-02T22:31:05.434Z,86.74
2018-11-02T22:33:35.581Z,85.97
2018-11-02T22:36:05.554Z,85.47
2018-11-02T22:38:37.357Z,83.93
2018-11-02T22:41:05.916Z,82.52
2018-11-02T22:43:34.389Z,79.84
2018-11-02T22:46:04.401Z,79.43
2018-11-02T22:48:32.958Z,78.25
2018-11-02T22:51:01.356Z,77.49
2018-11-02T22:53:30.563Z,77.32
2018-11-02T22:56:00.252Z,76.03
2018-11-02T22:58:32.447Z,76.39
2018-11-02T23:01:06.187Z,76.40
2018-11-02T23:03:34.897Z,74.16
2018-11-02T23:06:04.652Z,72.86
2018-11-02T23:08:33.710Z,70.87
2018-11-02T23:11:02.650Z,71.08
2018-11-02T23:13:30.895Z,70.53
2018-11-02T23:15:59.178Z,70.05
2018-11-02T23:18:30.508Z,70.24
2018-11-02T23:20:59.064Z,69.31
2018-11-02T23:23:28.321Z,69.01
2018-11-02T23:25:57.112Z,69.47
2018-11-02T23:28:25.695Z,70.06
2018-11-02T23:30:54.977Z,69.91
2018-11-02T23:33:24.091Z,69.96
2018-11-02T23:35:54.466Z,69.41
2018-11-02T23:38:23.694Z,69.52
2018-11-02T23:40:52.067Z,69.80
2018-11-02T23:45:56.909Z,70.68
2018-11-02T23:48:26.837Z,70.35
2018-11-02T23:50:55.670Z,70.13
2018-11-02T23:53:24.243Z,70.53
2018-11-02T23:56:07.883Z,69.68
2018-11-02T23:58:42.215Z,69.55
